sensor_id;sensor_type;location;lat;lon;timestamp;P1;durP1;ratioP1;P2;durP2;ratioP2
64686;SDS011;51113;53.646;-113.674;2022-11-23T00:02:12;6.93;;;2.10;;
64686;SDS011;51113;53.646;-113.674;2022-11-23T00:04:40;5.43;;;1.95;;
64686;SDS011;51113;53.646;-113.674;2022-11-23T00:07:09;3.33;;;1.98;;
64686;SDS011;51113;53.646;-113.674;2022-11-23T00:09:38;4.43;;;1.95;;
64686;SDS011;51113;53.646;-113.674;2022-11-23T00:12:07;4.35;;;1.88;;
64686;SDS011;51113;53.646;-113.674;2022-11-23T00:14:35;4.50;;;2.10;;
64686;SDS011;51113;53.646;-113.674;2022-11-23T00:17:04;4.15;;;2.38;;
64686;SDS011;51113;53.646;-113.674;2022-11-23T00:19:33;4.70;;;2.30;;
64686;SDS011;51113;53.646;-113.674;2022-11-23T00:22:02;2.85;;;2.00;;
64686;SDS011;51113;53.646;-113.674;2022-11-23T00:24:31;4.22;;;2.10;;
64686;SDS011;51113;53.646;-113.674;2022-11-23T00:26:59;5.35;;;2.08;;
64686;SDS011;51113;53.646;-113.674;2022-11-23T00:29:28;5.72;;;1.95;;
64686;SDS011;51113;53.646;-113.674;2022-11-23T00:31:57;3.67;;;2.03;;
64686;SDS011;51113;53.646;-113.674;2022-11-23T00:34:27;2.88;;;1.95;;
64686;SDS011;51113;53.646;-113.674;2022-11-23T00:36:56;3.20;;;1.90;;
64686;SDS011;51113;53.646;-113.674;2022-11-23T00:39:25;2.85;;;1.60;;
64686;SDS011;51113;53.646;-113.674;2022-11-23T00:41:54;4.90;;;1.70;;
64686;SDS011;51113;53.646;-113.674;2022-11-23T00:44:23;6.88;;;2.05;;
64686;SDS011;51113;53.646;-113.674;2022-11-23T00:46:52;6.03;;;1.98;;
64686;SDS011;51113;53.646;-113.674;2022-11-23T00:49:21;4.00;;;1.52;;
64686;SDS011;51113;53.646;-113.674;2022-11-23T00:51:49;3.20;;;1.65;;
64686;SDS011;51113;53.646;-113.674;2022-11-23T00:54:18;5.32;;;1.95;;
64686;SDS011;51113;53.646;-113.674;2022-11-23T00:56:47;4.50;;;1.80;;
64686;SDS011;51113;53.646;-113.674;2022-11-23T00:59:16;4.07;;;2.00;;
64686;SDS011;51113;53.646;-113.674;2022-11-23T01:01:47;5.07;;;2.13;;
64686;SDS011;51113;53.646;-113.674;2022-11-23T01:04:16;3.35;;;1.90;;
64686;SDS011;51113;53.646;-113.674;2022-11-23T01:06:45;5.60;;;1.77;;
64686;SDS011;51113;53.646;-113.674;2022-11-23T01:09:15;3.78;;;1.98;;
64686;SDS011;51113;53.646;-113.674;2022-11-23T01:11:45;3.60;;;1.80;;
64686;SDS011;51113;53.646;-113.674;2022-11-23T01:14:13;7.03;;;2.00;;
64686;SDS011;51113;53.646;-113.674;2022-11-23T01:16:44;3.60;;;1.95;;
64686;SDS011;51113;53.646;-113.674;2022-11-23T01:19:14;3.72;;;2.10;;
64686;SDS011;51113;53.646;-113.674;2022-11-23T01:21:48;5.80;;;1.98;;
64686;SDS011;51113;53.646;-113.674;2022-11-23T01:24:17;4.63;;;1.90;;
64686;SDS011;51113;53.646;-113.674;2022-11-23T01:26:53;7.78;;;1.65;;
64686;SDS011;51113;53.646;-113.674;2022-11-23T01:29:22;6.13;;;1.80;;
64686;SDS011;51113;53.646;-113.674;2022-11-23T01:31:51;3.47;;;1.88;;
64686;SDS011;51113;53.646;-113.674;2022-11-23T01:34:20;6.60;;;2.33;;
64686;SDS011;51113;53.646;-113.674;2022-11-23T01:36:49;7.60;;;2.13;;
64686;SDS011;51113;53.646;-113.674;2022-11-23T01:39:18;4.22;;;2.00;;
64686;SDS011;51113;53.646;-113.674;2022-11-23T01:41:46;4.60;;;2.35;;
64686;SDS011;51113;53.646;-113.674;2022-11-23T01:44:26;5.05;;;2.58;;
64686;SDS011;51113;53.646;-113.674;2022-11-23T01:47:02;4.35;;;2.38;;
64686;SDS011;51113;53.646;-113.674;2022-11-23T01:49:36;6.97;;;2.97;;
64686;SDS011;51113;53.646;-113.674;2022-11-23T01:52:09;6.32;;;2.95;;
64686;SDS011;51113;53.646;-113.674;2022-11-23T01:54:48;5.32;;;3.20;;
64686;SDS011;51113;53.646;-113.674;2022-11-23T01:57:23;6.85;;;3.00;;
64686;SDS011;51113;53.646;-113.674;2022-11-23T02:00:01;9.48;;;3.28;;
64686;SDS011;51113;53.646;-113.674;2022-11-23T02:02:30;7.75;;;2.85;;
64686;SDS011;51113;53.646;-113.674;2022-11-23T02:05:00;5.93;;;3.20;;
64686;SDS011;51113;53.646;-113.674;2022-11-23T02:07:30;5.18;;;2.90;;
64686;SDS011;51113;53.646;-113.674;2022-11-23T02:10:00;6.30;;;3.03;;
64686;SDS011;51113;53.646;-113.674;2022-11-23T02:12:29;7.82;;;2.80;;
64686;SDS011;51113;53.646;-113.674;2022-11-23T02:14:58;7.80;;;2.75;;
64686;SDS011;51113;53.646;-113.674;2022-11-23T02:17:26;5.10;;;2.70;;
64686;SDS011;51113;53.646;-113.674;2022-11-23T02:20:09;7.03;;;2.75;;
64686;SDS011;51113;53.646;-113.674;2022-11-23T02:25:52;7.18;;;2.70;;
64686;SDS011;51113;53.646;-113.674;2022-11-23T02:28:25;5.28;;;2.65;;
64686;SDS011;51113;53.646;-113.674;2022-11-23T02:31:05;5.57;;;2.65;;
64686;SDS011;51113;53.646;-113.674;2022-11-23T02:33:37;7.57;;;2.90;;
64686;SDS011;51113;53.646;-113.674;2022-11-23T02:39:53;6.30;;;2.78;;
64686;SDS011;51113;53.646;-113.674;2022-11-23T02:42:07;4.68;;;2.63;;
64686;SDS011;51113;53.646;-113.674;2022-11-23T02:47:43;5.00;;;2.60;;
64686;SDS011;51113;53.646;-113.674;2022-11-23T02:50:11;5.15;;;2.85;;
64686;SDS011;51113;53.646;-113.674;2022-11-23T02:52:40;10.07;;;2.95;;
64686;SDS011;51113;53.646;-113.674;2022-11-23T02:55:10;6.78;;;3.58;;
64686;SDS011;51113;53.646;-113.674;2022-11-23T02:57:39;11.85;;;4.07;;
64686;SDS011;51113;53.646;-113.674;2022-11-23T03:00:10;7.70;;;3.70;;
64686;SDS011;51113;53.646;-113.674;2022-11-23T03:02:40;12.10;;;3.88;;
64686;SDS011;51113;53.646;-113.674;2022-11-23T03:05:09;14.10;;;4.07;;
64686;SDS011;51113;53.646;-113.674;2022-11-23T03:07:38;8.80;;;3.60;;
64686;SDS011;51113;53.646;-113.674;2022-11-23T03:10:07;8.48;;;3.75;;
64686;SDS011;51113;53.646;-113.674;2022-11-23T03:12:36;11.35;;;3.85;;
64686;SDS011;51113;53.646;-113.674;2022-11-23T03:15:04;11.90;;;3.50;;
64686;SDS011;51113;53.646;-113.674;2022-11-23T03:17:34;8.52;;;3.70;;
64686;SDS011;51113;53.646;-113.674;2022-11-23T03:20:02;8.45;;;3.60;;
64686;SDS011;51113;53.646;-113.674;2022-11-23T03:22:32;10.70;;;3.40;;
64686;SDS011;51113;53.646;-113.674;2022-11-23T03:25:01;9.68;;;3.80;;
64686;SDS011;51113;53.646;-113.674;2022-11-23T03:27:30;11.27;;;3.90;;
64686;SDS011;51113;53.646;-113.674;2022-11-23T03:30:00;10.45;;;3.80;;
64686;SDS011;51113;53.646;-113.674;2022-11-23T03:32:29;8.70;;;3.70;;
64686;SDS011;51113;53.646;-113.674;2022-11-23T03:34:58;5.53;;;3.35;;
64686;SDS011;51113;53.646;-113.674;2022-11-23T03:37:26;7.32;;;3.65;;
64686;SDS011;51113;53.646;-113.674;2022-11-23T03:39:55;8.10;;;3.70;;
64686;SDS011;51113;53.646;-113.674;2022-11-23T03:42:24;10.32;;;3.63;;
64686;SDS011;51113;53.646;-113.674;2022-11-23T03:44:53;14.65;;;4.50;;
64686;SDS011;51113;53.646;-113.674;2022-11-23T03:47:22;11.90;;;4.03;;
64686;SDS011;51113;53.646;-113.674;2022-11-23T03:49:54;11.25;;;3.75;;
64686;SDS011;51113;53.646;-113.674;2022-11-23T03:52:23;14.30;;;4.43;;
64686;SDS011;51113;53.646;-113.674;2022-11-23T03:54:52;15.27;;;3.80;;
64686;SDS011;51113;53.646;-113.674;2022-11-23T03:57:20;12.77;;;4.05;;
64686;SDS011;51113;53.646;-113.674;2022-11-23T03:59:49;13.98;;;4.00;;
64686;SDS011;51113;53.646;-113.674;2022-11-23T04:02:18;8.43;;;3.92;;
64686;SDS011;51113;53.646;-113.674;2022-11-23T04:04:47;12.88;;;4.15;;
64686;SDS011;51113;53.646;-113.674;2022-11-23T04:07:16;7.32;;;3.58;;
64686;SDS011;51113;53.646;-113.674;2022-11-23T04:09:45;9.77;;;4.13;;
64686;SDS011;51113;53.646;-113.674;2022-11-23T04:12:14;10.30;;;3.67;;
64686;SDS011;51113;53.646;-113.674;2022-11-23T04:14:42;12.02;;;4.10;;
64686;SDS011;51113;53.646;-113.674;2022-11-23T04:17:12;8.75;;;3.67;;
64686;SDS011;51113;53.646;-113.674;2022-11-23T04:19:41;7.68;;;3.50;;
64686;SDS011;51113;53.646;-113.674;2022-11-23T04:22:10;8.93;;;3.67;;
64686;SDS011;51113;53.646;-113.674;2022-11-23T04:24:39;10.60;;;3.97;;
64686;SDS011;51113;53.646;-113.674;2022-11-23T04:27:11;9.63;;;3.92;;
64686;SDS011;51113;53.646;-113.674;2022-11-23T04:29:40;9.88;;;4.07;;
64686;SDS011;51113;53.646;-113.674;2022-11-23T04:32:09;10.55;;;3.63;;
64686;SDS011;51113;53.646;-113.674;2022-11-23T04:34:38;9.80;;;3.67;;
64686;SDS011;51113;53.646;-113.674;2022-11-23T04:37:08;9.32;;;3.50;;
64686;SDS011;51113;53.646;-113.674;2022-11-23T04:39:39;10.50;;;2.97;;
64686;SDS011;51113;53.646;-113.674;2022-11-23T04:42:09;6.65;;;3.08;;
64686;SDS011;51113;53.646;-113.674;2022-11-23T04:44:39;5.75;;;3.15;;
64686;SDS011;51113;53.646;-113.674;2022-11-23T04:47:08;10.50;;;3.00;;
64686;SDS011;51113;53.646;-113.674;2022-11-23T04:49:38;7.93;;;2.60;;
64686;SDS011;51113;53.646;-113.674;2022-11-23T04:52:08;13.02;;;2.95;;
64686;SDS011;51113;53.646;-113.674;2022-11-23T04:54:37;6.63;;;2.50;;
64686;SDS011;51113;53.646;-113.674;2022-11-23T04:57:07;4.72;;;2.30;;
64686;SDS011;51113;53.646;-113.674;2022-11-23T04:59:38;4.55;;;2.03;;
64686;SDS011;51113;53.646;-113.674;2022-11-23T05:02:07;7.28;;;2.42;;
64686;SDS011;51113;53.646;-113.674;2022-11-23T05:04:37;4.68;;;2.30;;
64686;SDS011;51113;53.646;-113.674;2022-11-23T05:07:06;4.22;;;2.25;;
64686;SDS011;51113;53.646;-113.674;2022-11-23T05:09:35;8.05;;;2.38;;
64686;SDS011;51113;53.646;-113.674;2022-11-23T05:12:04;6.93;;;1.80;;
64686;SDS011;51113;53.646;-113.674;2022-11-23T05:14:33;7.30;;;2.17;;
64686;SDS011;51113;53.646;-113.674;2022-11-23T05:17:02;9.15;;;2.33;;
64686;SDS011;51113;53.646;-113.674;2022-11-23T05:19:30;4.15;;;2.05;;
64686;SDS011;51113;53.646;-113.674;2022-11-23T05:21:59;5.07;;;2.20;;
64686;SDS011;51113;53.646;-113.674;2022-11-23T05:24:28;3.33;;;2.00;;
64686;SDS011;51113;53.646;-113.674;2022-11-23T05:26:57;6.57;;;2.10;;
64686;SDS011;51113;53.646;-113.674;2022-11-23T05:29:25;7.53;;;1.95;;
64686;SDS011;51113;53.646;-113.674;2022-11-23T05:31:55;3.38;;;1.77;;
64686;SDS011;51113;53.646;-113.674;2022-11-23T05:34:24;3.22;;;2.03;;
64686;SDS011;51113;53.646;-113.674;2022-11-23T05:36:52;4.53;;;1.75;;
64686;SDS011;51113;53.646;-113.674;2022-11-23T05:39:21;6.18;;;2.13;;
64686;SDS011;51113;53.646;-113.674;2022-11-23T05:41:50;3.00;;;1.70;;
64686;SDS011;51113;53.646;-113.674;2022-11-23T05:44:19;2.50;;;1.55;;
64686;SDS011;51113;53.646;-113.674;2022-11-23T05:46:48;6.15;;;1.85;;
64686;SDS011;51113;53.646;-113.674;2022-11-23T05:49:16;2.88;;;1.60;;
64686;SDS011;51113;53.646;-113.674;2022-11-23T05:51:48;4.53;;;1.75;;
64686;SDS011;51113;53.646;-113.674;2022-11-23T05:54:17;3.67;;;1.60;;
64686;SDS011;51113;53.646;-113.674;2022-11-23T05:56:46;3.10;;;1.65;;
64686;SDS011;51113;53.646;-113.674;2022-11-23T05:59:15;2.95;;;1.73;;
64686;SDS011;51113;53.646;-113.674;2022-11-23T06:01:44;3.95;;;1.67;;
64686;SDS011;51113;53.646;-113.674;2022-11-23T06:04:13;2.60;;;1.77;;
64686;SDS011;51113;53.646;-113.674;2022-11-23T06:06:42;2.08;;;1.52;;
64686;SDS011;51113;53.646;-113.674;2022-11-23T06:09:12;3.00;;;1.38;;
64686;SDS011;51113;53.646;-113.674;2022-11-23T06:11:41;2.92;;;1.55;;
64686;SDS011;51113;53.646;-113.674;2022-11-23T06:14:11;3.67;;;1.50;;
64686;SDS011;51113;53.646;-113.674;2022-11-23T06:16:40;3.33;;;1.70;;
64686;SDS011;51113;53.646;-113.674;2022-11-23T06:19:09;2.33;;;1.45;;
64686;SDS011;51113;53.646;-113.674;2022-11-23T06:21:41;2.50;;;1.70;;
64686;SDS011;51113;53.646;-113.674;2022-11-23T06:24:15;3.17;;;1.63;;
64686;SDS011;51113;53.646;-113.674;2022-11-23T06:26:45;3.40;;;1.52;;
64686;SDS011;51113;53.646;-113.674;2022-11-23T06:29:14;2.40;;;1.55;;
64686;SDS011;51113;53.646;-113.674;2022-11-23T06:31:43;2.75;;;1.55;;
64686;SDS011;51113;53.646;-113.674;2022-11-23T06:34:12;1.70;;;1.40;;
64686;SDS011;51113;53.646;-113.674;2022-11-23T06:36:41;1.98;;;1.40;;
64686;SDS011;51113;53.646;-113.674;2022-11-23T06:39:10;3.33;;;1.65;;
64686;SDS011;51113;53.646;-113.674;2022-11-23T06:41:40;8.68;;;1.75;;
64686;SDS011;51113;53.646;-113.674;2022-11-23T06:44:09;1.85;;;1.30;;
64686;SDS011;51113;53.646;-113.674;2022-11-23T06:46:38;1.98;;;1.50;;
64686;SDS011;51113;53.646;-113.674;2022-11-23T06:49:07;2.33;;;1.30;;
64686;SDS011;51113;53.646;-113.674;2022-11-23T06:51:36;3.08;;;1.60;;
64686;SDS011;51113;53.646;-113.674;2022-11-23T06:54:07;2.10;;;1.40;;
64686;SDS011;51113;53.646;-113.674;2022-11-23T06:56:37;2.47;;;1.50;;
64686;SDS011;51113;53.646;-113.674;2022-11-23T06:59:06;4.45;;;1.70;;
64686;SDS011;51113;53.646;-113.674;2022-11-23T07:01:35;2.97;;;1.55;;
64686;SDS011;51113;53.646;-113.674;2022-11-23T07:04:05;4.07;;;1.60;;
64686;SDS011;51113;53.646;-113.674;2022-11-23T07:06:33;2.65;;;1.60;;
64686;SDS011;51113;53.646;-113.674;2022-11-23T07:09:06;2.83;;;1.77;;
64686;SDS011;51113;53.646;-113.674;2022-11-23T07:11:36;2.58;;;1.55;;
64686;SDS011;51113;53.646;-113.674;2022-11-23T07:14:06;2.50;;;1.60;;
64686;SDS011;51113;53.646;-113.674;2022-11-23T07:16:35;1.85;;;1.33;;
64686;SDS011;51113;53.646;-113.674;2022-11-23T07:19:04;4.20;;;1.55;;
64686;SDS011;51113;53.646;-113.674;2022-11-23T07:21:33;3.40;;;1.50;;
64686;SDS011;51113;53.646;-113.674;2022-11-23T07:24:02;5.43;;;1.50;;
64686;SDS011;51113;53.646;-113.674;2022-11-23T07:26:31;1.70;;;1.30;;
64686;SDS011;51113;53.646;-113.674;2022-11-23T07:29:00;2.38;;;1.35;;
64686;SDS011;51113;53.646;-113.674;2022-11-23T07:31:29;2.53;;;1.30;;
64686;SDS011;51113;53.646;-113.674;2022-11-23T07:33:58;2.50;;;1.40;;
64686;SDS011;51113;53.646;-113.674;2022-11-23T07:36:27;1.88;;;1.20;;
64686;SDS011;51113;53.646;-113.674;2022-11-23T07:38:56;2.47;;;1.40;;
64686;SDS011;51113;53.646;-113.674;2022-11-23T07:41:26;3.83;;;1.30;;
64686;SDS011;51113;53.646;-113.674;2022-11-23T07:43:54;3.25;;;1.40;;
64686;SDS011;51113;53.646;-113.674;2022-11-23T07:46:24;2.50;;;1.30;;
64686;SDS011;51113;53.646;-113.674;2022-11-23T07:48:52;1.95;;;1.30;;
64686;SDS011;51113;53.646;-113.674;2022-11-23T07:51:27;1.40;;;1.13;;
64686;SDS011;51113;53.646;-113.674;2022-11-23T07:53:56;2.22;;;1.38;;
64686;SDS011;51113;53.646;-113.674;2022-11-23T07:56:25;2.33;;;1.27;;
64686;SDS011;51113;53.646;-113.674;2022-11-23T07:58:54;2.50;;;1.50;;
64686;SDS011;51113;53.646;-113.674;2022-11-23T08:01:24;1.77;;;1.20;;
64686;SDS011;51113;53.646;-113.674;2022-11-23T08:03:53;1.70;;;1.20;;
64686;SDS011;51113;53.646;-113.674;2022-11-23T08:06:23;1.27;;;1.10;;
64686;SDS011;51113;53.646;-113.674;2022-11-23T08:08:53;1.65;;;1.10;;
64686;SDS011;51113;53.646;-113.674;2022-11-23T08:11:22;3.58;;;1.40;;
64686;SDS011;51113;53.646;-113.674;2022-11-23T08:13:51;1.90;;;1.13;;
64686;SDS011;51113;53.646;-113.674;2022-11-23T08:16:20;2.05;;;1.15;;
64686;SDS011;51113;53.646;-113.674;2022-11-23T08:18:51;2.38;;;1.30;;
64686;SDS011;51113;53.646;-113.674;2022-11-23T08:21:20;1.70;;;1.17;;
64686;SDS011;51113;53.646;-113.674;2022-11-23T08:23:49;2.30;;;1.10;;
64686;SDS011;51113;53.646;-113.674;2022-11-23T08:26:18;1.50;;;1.00;;
64686;SDS011;51113;53.646;-113.674;2022-11-23T08:28:49;3.47;;;1.10;;
64686;SDS011;51113;53.646;-113.674;2022-11-23T08:31:18;2.47;;;1.30;;
64686;SDS011;51113;53.646;-113.674;2022-11-23T08:33:47;2.30;;;1.27;;
64686;SDS011;51113;53.646;-113.674;2022-11-23T08:36:16;1.33;;;1.10;;
64686;SDS011;51113;53.646;-113.674;2022-11-23T08:38:45;1.85;;;1.30;;
64686;SDS011;51113;53.646;-113.674;2022-11-23T08:41:18;1.92;;;1.15;;
64686;SDS011;51113;53.646;-113.674;2022-11-23T08:43:49;2.65;;;1.20;;
64686;SDS011;51113;53.646;-113.674;2022-11-23T08:46:18;2.40;;;1.40;;
64686;SDS011;51113;53.646;-113.674;2022-11-23T08:48:47;3.90;;;1.40;;
64686;SDS011;51113;53.646;-113.674;2022-11-23T08:51:16;2.50;;;1.60;;
64686;SDS011;51113;53.646;-113.674;2022-11-23T08:53:49;3.55;;;1.60;;
64686;SDS011;51113;53.646;-113.674;2022-11-23T08:56:18;2.75;;;1.65;;
64686;SDS011;51113;53.646;-113.674;2022-11-23T08:58:47;3.30;;;1.63;;
64686;SDS011;51113;53.646;-113.674;2022-11-23T09:01:16;3.45;;;1.70;;
64686;SDS011;51113;53.646;-113.674;2022-11-23T09:03:45;2.65;;;1.55;;
64686;SDS011;51113;53.646;-113.674;2022-11-23T09:06:14;3.80;;;1.90;;
64686;SDS011;51113;53.646;-113.674;2022-11-23T09:08:43;4.30;;;1.73;;
64686;SDS011;51113;53.646;-113.674;2022-11-23T09:11:12;3.25;;;1.80;;
64686;SDS011;51113;53.646;-113.674;2022-11-23T09:13:44;2.90;;;1.70;;
64686;SDS011;51113;53.646;-113.674;2022-11-23T09:16:13;2.67;;;1.50;;
64686;SDS011;51113;53.646;-113.674;2022-11-23T09:18:42;3.80;;;1.70;;
64686;SDS011;51113;53.646;-113.674;2022-11-23T09:21:11;3.03;;;1.70;;
64686;SDS011;51113;53.646;-113.674;2022-11-23T09:23:40;2.17;;;1.50;;
64686;SDS011;51113;53.646;-113.674;2022-11-23T09:26:09;1.92;;;1.40;;
64686;SDS011;51113;53.646;-113.674;2022-11-23T09:28:39;2.58;;;1.50;;
64686;SDS011;51113;53.646;-113.674;2022-11-23T09:31:10;1.70;;;1.38;;
64686;SDS011;51113;53.646;-113.674;2022-11-23T09:33:39;2.15;;;1.50;;
64686;SDS011;51113;53.646;-113.674;2022-11-23T09:36:08;3.40;;;1.60;;
64686;SDS011;51113;53.646;-113.674;2022-11-23T09:38:38;2.40;;;1.45;;
64686;SDS011;51113;53.646;-113.674;2022-11-23T09:44:15;3.17;;;1.48;;
64686;SDS011;51113;53.646;-113.674;2022-11-23T09:52:35;3.17;;;1.30;;
64686;SDS011;51113;53.646;-113.674;2022-11-23T09:55:50;2.13;;;1.23;;
64686;SDS011;51113;53.646;-113.674;2022-11-23T09:58:05;3.15;;;1.30;;
64686;SDS011;51113;53.646;-113.674;2022-11-23T10:00:41;2.45;;;1.40;;
64686;SDS011;51113;53.646;-113.674;2022-11-23T10:03:32;2.25;;;1.40;;
64686;SDS011;51113;53.646;-113.674;2022-11-23T10:06:18;2.40;;;1.50;;
64686;SDS011;51113;53.646;-113.674;2022-11-23T10:09:12;1.73;;;1.35;;
64686;SDS011;51113;53.646;-113.674;2022-11-23T10:22:58;2.45;;;1.23;;
64686;SDS011;51113;53.646;-113.674;2022-11-23T10:25:30;3.67;;;1.20;;
64686;SDS011;51113;53.646;-113.674;2022-11-23T10:28:26;2.53;;;1.17;;
64686;SDS011;51113;53.646;-113.674;2022-11-23T10:36:37;1.60;;;1.17;;
64686;SDS011;51113;53.646;-113.674;2022-11-23T10:39:28;2.67;;;1.08;;
64686;SDS011;51113;53.646;-113.674;2022-11-23T10:41:59;1.63;;;1.02;;
64686;SDS011;51113;53.646;-113.674;2022-11-23T10:44:33;2.10;;;1.10;;
64686;SDS011;51113;53.646;-113.674;2022-11-23T10:47:05;2.85;;;1.05;;
64686;SDS011;51113;53.646;-113.674;2022-11-23T10:49:34;1.00;;;0.90;;
64686;SDS011;51113;53.646;-113.674;2022-11-23T10:52:04;1.83;;;1.20;;
64686;SDS011;51113;53.646;-113.674;2022-11-23T10:59:57;0.98;;;0.88;;
64686;SDS011;51113;53.646;-113.674;2022-11-23T11:02:27;1.77;;;1.10;;
64686;SDS011;51113;53.646;-113.674;2022-11-23T11:08:23;1.30;;;1.00;;
64686;SDS011;51113;53.646;-113.674;2022-11-23T11:11:05;1.27;;;1.10;;
64686;SDS011;51113;53.646;-113.674;2022-11-23T11:13:42;2.08;;;1.10;;
64686;SDS011;51113;53.646;-113.674;2022-11-23T11:16:19;2.95;;;1.10;;
64686;SDS011;51113;53.646;-113.674;2022-11-23T11:18:50;1.80;;;1.20;;
64686;SDS011;51113;53.646;-113.674;2022-11-23T11:21:20;2.35;;;1.30;;
64686;SDS011;51113;53.646;-113.674;2022-11-23T11:24:02;3.13;;;1.20;;
64686;SDS011;51113;53.646;-113.674;2022-11-23T11:26:33;2.55;;;1.10;;
64686;SDS011;51113;53.646;-113.674;2022-11-23T11:29:05;1.98;;;1.10;;
64686;SDS011;51113;53.646;-113.674;2022-11-23T11:34:22;5.30;;;1.23;;
64686;SDS011;51113;53.646;-113.674;2022-11-23T11:45:32;1.98;;;1.17;;
64686;SDS011;51113;53.646;-113.674;2022-11-23T11:48:27;1.98;;;1.20;;
64686;SDS011;51113;53.646;-113.674;2022-11-23T11:53:52;1.20;;;1.10;;
64686;SDS011;51113;53.646;-113.674;2022-11-23T11:56:35;1.45;;;1.05;;
64686;SDS011;51113;53.646;-113.674;2022-11-23T12:07:34;1.60;;;1.10;;
64686;SDS011;51113;53.646;-113.674;2022-11-23T12:12:59;1.52;;;1.10;;
64686;SDS011;51113;53.646;-113.674;2022-11-23T12:15:38;1.30;;;1.10;;
64686;SDS011;51113;53.646;-113.674;2022-11-23T12:18:37;3.78;;;1.13;;
64686;SDS011;51113;53.646;-113.674;2022-11-23T12:21:21;2.35;;;1.30;;
64686;SDS011;51113;53.646;-113.674;2022-11-23T12:51:21;1.23;;;1.00;;
64686;SDS011;51113;53.646;-113.674;2022-11-23T12:59:38;1.75;;;1.30;;
64686;SDS011;51113;53.646;-113.674;2022-11-23T13:02:23;2.95;;;1.27;;
64686;SDS011;51113;53.646;-113.674;2022-11-23T13:05:05;2.30;;;1.23;;
64686;SDS011;51113;53.646;-113.674;2022-11-23T13:11:17;3.10;;;1.40;;
64686;SDS011;51113;53.646;-113.674;2022-11-23T13:14:11;1.90;;;1.48;;
64686;SDS011;51113;53.646;-113.674;2022-11-23T13:19:47;2.17;;;1.48;;
64686;SDS011;51113;53.646;-113.674;2022-11-23T13:22:21;1.88;;;1.40;;
64686;SDS011;51113;53.646;-113.674;2022-11-23T13:24:59;4.25;;;1.55;;
64686;SDS011;51113;53.646;-113.674;2022-11-23T13:27:29;2.45;;;1.50;;
64686;SDS011;51113;53.646;-113.674;2022-11-23T13:30:06;2.13;;;1.30;;
64686;SDS011;51113;53.646;-113.674;2022-11-23T13:40:28;2.38;;;1.50;;
64686;SDS011;51113;53.646;-113.674;2022-11-23T13:43:00;2.55;;;1.50;;
64686;SDS011;51113;53.646;-113.674;2022-11-23T13:45:32;2.08;;;1.30;;
64686;SDS011;51113;53.646;-113.674;2022-11-23T13:51:00;1.50;;;1.30;;
64686;SDS011;51113;53.646;-113.674;2022-11-23T13:53:33;1.58;;;1.20;;
64686;SDS011;51113;53.646;-113.674;2022-11-23T14:04:37;2.58;;;1.58;;
64686;SDS011;51113;53.646;-113.674;2022-11-23T14:09:44;3.15;;;1.70;;
64686;SDS011;51113;53.646;-113.674;2022-11-23T14:12:31;2.55;;;1.67;;
64686;SDS011;51113;53.646;-113.674;2022-11-23T14:15:18;2.95;;;1.60;;
64686;SDS011;51113;53.646;-113.674;2022-11-23T14:23:49;2.17;;;1.52;;
64686;SDS011;51113;53.646;-113.674;2022-11-23T14:26:44;2.70;;;1.65;;
64686;SDS011;51113;53.646;-113.674;2022-11-23T14:32:44;3.22;;;1.90;;
64686;SDS011;51113;53.646;-113.674;2022-11-23T14:35:42;2.60;;;1.90;;
64686;SDS011;51113;53.646;-113.674;2022-11-23T14:43:46;2.35;;;1.67;;
64686;SDS011;51113;53.646;-113.674;2022-11-23T14:46:17;2.60;;;1.70;;
64686;SDS011;51113;53.646;-113.674;2022-11-23T14:48:47;3.25;;;1.73;;
64686;SDS011;51113;53.646;-113.674;2022-11-23T14:51:18;3.67;;;1.90;;
64686;SDS011;51113;53.646;-113.674;2022-11-23T14:53:52;2.65;;;1.70;;
64686;SDS011;51113;53.646;-113.674;2022-11-23T14:56:40;2.67;;;1.70;;
64686;SDS011;51113;53.646;-113.674;2022-11-23T15:01:52;2.75;;;1.95;;
64686;SDS011;51113;53.646;-113.674;2022-11-23T15:04:26;4.47;;;2.78;;
64686;SDS011;51113;53.646;-113.674;2022-11-23T15:07:12;3.78;;;2.08;;
64686;SDS011;51113;53.646;-113.674;2022-11-23T15:09:50;3.60;;;2.13;;
64686;SDS011;51113;53.646;-113.674;2022-11-23T15:12:24;4.90;;;2.33;;
64686;SDS011;51113;53.646;-113.674;2022-11-23T15:14:55;4.72;;;2.08;;
64686;SDS011;51113;53.646;-113.674;2022-11-23T15:17:24;4.22;;;2.50;;
64686;SDS011;51113;53.646;-113.674;2022-11-23T15:19:57;5.82;;;2.30;;
64686;SDS011;51113;53.646;-113.674;2022-11-23T15:22:27;2.97;;;2.10;;
64686;SDS011;51113;53.646;-113.674;2022-11-23T15:25:04;4.07;;;2.60;;
64686;SDS011;51113;53.646;-113.674;2022-11-23T15:27:39;3.42;;;1.92;;
64686;SDS011;51113;53.646;-113.674;2022-11-23T15:30:28;3.00;;;1.88;;
64686;SDS011;51113;53.646;-113.674;2022-11-23T15:32:58;2.97;;;1.90;;
64686;SDS011;51113;53.646;-113.674;2022-11-23T15:35:33;5.03;;;2.10;;
64686;SDS011;51113;53.646;-113.674;2022-11-23T15:38:08;2.60;;;1.80;;
64686;SDS011;51113;53.646;-113.674;2022-11-23T15:40:47;3.40;;;2.15;;
64686;SDS011;51113;53.646;-113.674;2022-11-23T15:43:17;3.42;;;1.95;;
64686;SDS011;51113;53.646;-113.674;2022-11-23T15:48:25;2.97;;;1.98;;
64686;SDS011;51113;53.646;-113.674;2022-11-23T15:51:05;4.93;;;2.00;;
64686;SDS011;51113;53.646;-113.674;2022-11-23T15:53:45;3.88;;;2.20;;
64686;SDS011;51113;53.646;-113.674;2022-11-23T15:56:27;2.17;;;1.65;;
64686;SDS011;51113;53.646;-113.674;2022-11-23T15:59:02;2.88;;;2.00;;
64686;SDS011;51113;53.646;-113.674;2022-11-23T16:01:44;2.50;;;1.73;;
64686;SDS011;51113;53.646;-113.674;2022-11-23T16:04:35;3.77;;;1.93;;
64686;SDS011;51113;53.646;-113.674;2022-11-23T16:07:23;2.15;;;1.67;;
64686;SDS011;51113;53.646;-113.674;2022-11-23T16:12:34;2.95;;;1.80;;
64686;SDS011;51113;53.646;-113.674;2022-11-23T16:20:51;2.83;;;1.83;;
64686;SDS011;51113;53.646;-113.674;2022-11-23T16:23:24;4.00;;;2.20;;
64686;SDS011;51113;53.646;-113.674;2022-11-23T16:25:59;2.85;;;1.70;;
64686;SDS011;51113;53.646;-113.674;2022-11-23T16:28:38;2.85;;;2.00;;
64686;SDS011;51113;53.646;-113.674;2022-11-23T16:31:50;4.32;;;2.00;;
64686;SDS011;51113;53.646;-113.674;2022-11-23T16:34:18;2.95;;;1.80;;
64686;SDS011;51113;53.646;-113.674;2022-11-23T16:36:47;2.83;;;1.80;;
64686;SDS011;51113;53.646;-113.674;2022-11-23T16:39:16;2.60;;;1.90;;
64686;SDS011;51113;53.646;-113.674;2022-11-23T16:41:46;2.95;;;1.73;;
64686;SDS011;51113;53.646;-113.674;2022-11-23T16:44:16;3.08;;;1.88;;
64686;SDS011;51113;53.646;-113.674;2022-11-23T16:46:45;2.42;;;1.60;;
64686;SDS011;51113;53.646;-113.674;2022-11-23T16:49:18;2.67;;;1.77;;
64686;SDS011;51113;53.646;-113.674;2022-11-23T16:51:50;2.85;;;1.75;;
64686;SDS011;51113;53.646;-113.674;2022-11-23T16:56:51;3.15;;;1.77;;
64686;SDS011;51113;53.646;-113.674;2022-11-23T16:59:20;2.28;;;1.50;;
64686;SDS011;51113;53.646;-113.674;2022-11-23T17:01:50;3.75;;;1.52;;
64686;SDS011;51113;53.646;-113.674;2022-11-23T17:04:23;1.77;;;1.40;;
64686;SDS011;51113;53.646;-113.674;2022-11-23T17:06:52;3.15;;;1.40;;
64686;SDS011;51113;53.646;-113.674;2022-11-23T17:09:21;2.80;;;1.50;;
64686;SDS011;51113;53.646;-113.674;2022-11-23T17:11:50;2.42;;;1.50;;
64686;SDS011;51113;53.646;-113.674;2022-11-23T17:14:26;3.45;;;1.67;;
64686;SDS011;51113;53.646;-113.674;2022-11-23T17:16:55;3.03;;;1.40;;
64686;SDS011;51113;53.646;-113.674;2022-11-23T17:19:27;5.35;;;1.40;;